createdAt,value
2023-02-06T00:03:23.762Z,48.83
2023-02-06T00:07:25.623Z,50.00
2023-02-06T00:11:27.643Z,46.53
2023-02-06T00:15:29.599Z,49.73
2023-02-06T00:19:31.708Z,48.90
2023-02-06T00:23:33.641Z,45.50
2023-02-06T00:27:35.839Z,45.83
2023-02-06T00:31:37.871Z,53.33
2023-02-06T00:35:41.721Z,45.57
2023-02-06T00:39:43.993Z,47.13
2023-02-06T00:43:45.931Z,46.17
2023-02-06T00:47:47.953Z,53.90
2023-02-06T00:51:50.054Z,53.23
2023-02-06T00:55:52.035Z,51.53
2023-02-06T00:59:55.000Z,45.93
2023-02-06T01:03:56.929Z,46.60
2023-02-06T01:07:58.879Z,48.90
2023-02-06T01:12:00.867Z,49.70
2023-02-06T01:16:02.887Z,45.73
2023-02-06T01:20:07.885Z,40.70
2023-02-06T01:24:10.343Z,42.70
2023-02-06T01:28:12.856Z,42.90
2023-02-06T01:32:14.814Z,40.23
2023-02-06T01:36:17.707Z,43.87
2023-02-06T01:40:19.741Z,39.77
2023-02-06T01:44:24.585Z,37.17
2023-02-06T01:48:32.388Z,41.17
2023-02-06T01:52:34.465Z,41.77
2023-02-06T01:56:43.548Z,34.93
2023-02-06T02:00:46.760Z,35.53
2023-02-06T02:04:48.974Z,34.63
2023-02-06T02:08:54.151Z,37.03
2023-02-06T02:12:56.148Z,30.50
2023-02-06T02:17:17.130Z,38.17
2023-02-06T02:21:37.645Z,29.60
2023-02-06T02:26:21.983Z,32.60
2023-02-06T02:30:54.672Z,33.93
2023-02-06T02:35:03.024Z,36.87
2023-02-06T02:39:21.114Z,35.67
2023-02-06T02:43:55.456Z,38.50
2023-02-06T02:48:28.097Z,38.83
2023-02-06T02:52:30.121Z,32.87
2023-02-06T02:56:33.657Z,31.90
2023-02-06T03:00:43.395Z,31.90
2023-02-06T03:04:58.886Z,35.23
2023-02-06T03:09:13.126Z,35.87
2023-02-06T03:13:18.403Z,30.80
2023-02-06T03:17:47.587Z,28.80
2023-02-06T03:21:50.331Z,27.77
2023-02-06T03:25:58.401Z,26.37
2023-02-06T03:30:02.133Z,21.17
2023-02-06T03:34:19.863Z,24.77
2023-02-06T03:38:24.732Z,24.47
2023-02-06T03:42:29.557Z,25.77
2023-02-06T03:46:34.349Z,20.70
2023-02-06T03:50:39.884Z,19.50
2023-02-06T03:54:47.544Z,25.47
2023-02-06T03:58:49.588Z,23.43
2023-02-06T04:02:52.451Z,24.43
2023-02-06T04:07:00.709Z,28.53
2023-02-06T04:11:02.656Z,28.60
2023-02-06T04:15:05.127Z,25.07
2023-02-06T04:19:07.090Z,20.00
2023-02-06T04:23:09.178Z,19.67
2023-02-06T04:27:13.969Z,23.13
2023-02-06T04:31:16.107Z,23.53
2023-02-06T04:35:18.253Z,20.03
2023-02-06T04:39:20.302Z,21.23
2023-02-06T04:43:22.226Z,22.17
2023-02-06T04:47:24.210Z,23.10
2023-02-06T04:51:26.198Z,25.67
2023-02-06T04:55:28.387Z,21.73
2023-02-06T04:59:30.323Z,22.93
2023-02-06T05:03:32.309Z,20.40
2023-02-06T05:07:35.730Z,24.90
2023-02-06T05:11:37.718Z,23.10
2023-02-06T05:15:39.952Z,22.23
2023-02-06T05:19:42.120Z,24.83
2023-02-06T05:23:44.475Z,25.27
2023-02-06T05:27:46.710Z,25.23
2023-02-06T05:31:48.710Z,23.27
2023-02-06T05:35:50.676Z,27.93
2023-02-06T05:39:52.749Z,26.63
2023-02-06T05:43:54.669Z,26.87
2023-02-06T05:47:56.705Z,27.80
2023-02-06T05:51:58.720Z,26.23
2023-02-06T05:56:00.680Z,26.60
2023-02-06T06:00:04.038Z,25.93
2023-02-06T06:04:14.129Z,31.03
2023-02-06T06:08:16.183Z,26.93
2023-02-06T06:12:18.096Z,24.90
2023-02-06T06:16:20.046Z,28.10
2023-02-06T06:20:22.178Z,23.83
2023-02-06T06:24:24.469Z,24.03
2023-02-06T06:28:26.401Z,24.13
2023-02-06T06:32:28.301Z,25.87
2023-02-06T06:36:30.244Z,25.40
2023-02-06T06:40:32.267Z,23.80
2023-02-06T06:44:34.513Z,25.13
2023-02-06T06:48:38.220Z,19.97
2023-02-06T06:52:40.197Z,24.37
2023-02-06T06:56:42.651Z,30.20
2023-02-06T07:00:44.970Z,24.77
2023-02-06T07:04:46.916Z,26.33
2023-02-06T07:08:48.860Z,26.73
2023-02-06T07:12:53.523Z,28.07
2023-02-06T07:16:56.302Z,28.87
2023-02-06T07:20:58.388Z,40.87
2023-02-06T07:25:00.280Z,28.37
2023-02-06T07:29:02.196Z,27.30
2023-02-06T07:33:07.921Z,25.73
2023-02-06T07:37:10.173Z,27.63
2023-02-06T07:41:12.824Z,28.50
2023-02-06T07:45:15.084Z,24.33
2023-02-06T07:49:17.118Z,22.83
2023-02-06T07:53:20.341Z,26.37
2023-02-06T07:57:22.327Z,24.20
2023-02-06T08:01:24.429Z,25.17
2023-02-06T08:05:26.409Z,26.77
2023-02-06T08:09:28.924Z,28.03
2023-02-06T08:13:30.871Z,24.87
2023-02-06T08:17:32.764Z,29.57
2023-02-06T08:21:34.719Z,24.20
2023-02-06T08:25:36.919Z,23.00
2023-02-06T08:29:42.638Z,21.50
2023-02-06T08:33:45.187Z,22.90
2023-02-06T08:37:47.107Z,25.07
2023-02-06T08:41:49.893Z,32.83
2023-02-06T08:45:53.367Z,19.73
2023-02-06T08:49:55.454Z,17.80
2023-02-06T08:54:02.805Z,15.53
2023-02-06T08:58:05.572Z,22.37
2023-02-06T09:02:09.528Z,15.63
2023-02-06T09:06:12.311Z,17.03
2023-02-06T09:10:26.769Z,9.90
2023-02-06T09:14:30.070Z,9.03
2023-02-06T09:18:32.202Z,9.17
2023-02-06T09:22:35.879Z,14.70
2023-02-06T09:26:58.146Z,11.17
2023-02-06T09:31:01.324Z,10.63
2023-02-06T09:35:04.570Z,11.03
2023-02-06T09:39:08.528Z,13.67
2023-02-06T09:43:13.984Z,12.30
2023-02-06T09:47:28.895Z,15.73
2023-02-06T09:51:40.468Z,10.30
2023-02-06T09:55:44.214Z,9.40
2023-02-06T09:59:56.313Z,10.67
2023-02-06T10:04:20.863Z,10.53
2023-02-06T10:08:28.319Z,13.00
2023-02-06T10:12:45.518Z,12.70
2023-02-06T10:16:50.303Z,11.27
2023-02-06T10:21:14.351Z,12.63
2023-02-06T10:25:29.127Z,11.63
2023-02-06T10:29:34.137Z,9.03
2023-02-06T10:34:10.411Z,12.63
2023-02-06T10:38:30.211Z,12.43
2023-02-06T10:42:53.889Z,10.27
2023-02-06T10:46:56.805Z,10.63
2023-02-06T10:51:20.344Z,13.10
2023-02-06T10:55:28.301Z,10.07
2023-02-06T10:59:33.676Z,13.40
2023-02-06T11:03:43.124Z,8.87
2023-02-06T11:07:57.132Z,9.67
2023-02-06T11:12:00.879Z,11.30
2023-02-06T11:16:12.910Z,11.20
2023-02-06T11:20:20.259Z,10.57
2023-02-06T11:24:24.656Z,7.30
2023-02-06T11:28:27.165Z,8.47
2023-02-06T11:32:52.811Z,10.03
2023-02-06T11:37:03.938Z,8.63
2023-02-06T11:41:19.075Z,10.63
2023-02-06T11:45:28.351Z,8.60
2023-02-06T11:49:30.293Z,11.70
2023-02-06T11:53:34.354Z,8.00
2023-02-06T11:57:36.322Z,15.67
2023-02-06T12:01:43.016Z,13.60
2023-02-06T12:05:45.275Z,11.00
2023-02-06T12:09:47.247Z,8.07
2023-02-06T12:13:56.967Z,9.50
2023-02-06T12:18:10.013Z,7.47
2023-02-06T12:22:24.255Z,10.43
2023-02-06T12:26:29.526Z,9.60
2023-02-06T12:31:17.091Z,20.63
2023-02-06T12:35:26.746Z,10.03
2023-02-06T12:39:34.332Z,10.77
2023-02-06T12:43:40.868Z,10.43
2023-02-06T12:47:58.710Z,10.63
2023-02-06T12:52:14.632Z,12.23
2023-02-06T12:56:30.847Z,11.90
2023-02-06T13:00:41.600Z,10.23
2023-02-06T13:04:45.976Z,10.13
2023-02-06T13:08:58.196Z,11.23
2023-02-06T13:13:00.203Z,10.03
2023-02-06T13:17:16.630Z,9.27
2023-02-06T13:21:29.951Z,9.60
2023-02-06T13:25:31.949Z,8.47
2023-02-06T13:29:38.657Z,8.23
2023-02-06T13:33:51.355Z,8.40
2023-02-06T13:38:12.654Z,8.27
2023-02-06T13:42:56.889Z,10.10
2023-02-06T13:47:57.673Z,16.03
2023-02-06T13:52:37.880Z,11.53
2023-02-06T13:56:59.881Z,9.27
2023-02-06T14:01:04.570Z,14.67
2023-02-06T14:05:11.170Z,10.43
2023-02-06T14:09:44.109Z,10.37
2023-02-06T14:14:04.559Z,9.67
2023-02-06T14:18:15.382Z,10.30
2023-02-06T14:22:43.958Z,22.70
2023-02-06T14:27:21.287Z,13.70
2023-02-06T14:31:29.645Z,9.40
2023-02-06T14:35:53.084Z,9.93
2023-02-06T14:39:57.371Z,12.20
2023-02-06T14:44:00.015Z,35.90
2023-02-06T14:48:04.827Z,46.63
2023-02-06T14:52:06.786Z,22.73
2023-02-06T14:56:24.985Z,22.07
2023-02-06T15:00:28.345Z,25.10
2023-02-06T15:04:30.684Z,12.80
2023-02-06T15:08:33.609Z,14.67
2023-02-06T15:12:36.543Z,14.33
2023-02-06T15:16:49.047Z,15.77
2023-02-06T15:20:57.321Z,12.70
2023-02-06T15:25:31.494Z,11.80
2023-02-06T15:29:33.621Z,16.27
2023-02-06T15:33:35.937Z,16.27
2023-02-06T15:37:37.868Z,14.23
2023-02-06T15:41:42.357Z,21.03
2023-02-06T15:45:45.050Z,12.53
2023-02-06T15:49:50.497Z,14.97
2023-02-06T15:54:06.613Z,18.20
2023-02-06T15:58:15.517Z,17.73
2023-02-06T16:02:25.564Z,13.33
2023-02-06T16:06:27.859Z,12.13
2023-02-06T16:10:35.871Z,14.90
2023-02-06T16:14:52.430Z,14.57
2023-02-06T16:18:57.376Z,38.53
2023-02-06T16:23:18.097Z,21.43
2023-02-06T16:27:27.905Z,12.63
2023-02-06T16:31:34.096Z,12.97
2023-02-06T16:35:36.110Z,17.77
2023-02-06T16:39:40.605Z,13.30
2023-02-06T16:43:42.580Z,16.17
2023-02-06T16:47:44.680Z,13.60
2023-02-06T16:51:48.611Z,40.90
2023-02-06T16:55:51.013Z,23.57
2023-02-06T16:59:53.008Z,15.10
2023-02-06T17:03:55.492Z,11.87
2023-02-06T17:07:57.586Z,12.40
2023-02-06T17:11:59.551Z,14.90
2023-02-06T17:16:01.602Z,14.77
2023-02-06T17:20:03.987Z,14.10
2023-02-06T17:24:06.215Z,32.43
2023-02-06T17:28:10.993Z,15.50
2023-02-06T17:32:13.381Z,99.17
2023-02-06T17:36:29.625Z,98.00
2023-02-06T17:40:34.139Z,24.60
2023-02-06T17:44:36.143Z,19.23
2023-02-06T17:48:42.622Z,20.33
2023-02-06T17:52:44.698Z,17.70
2023-02-06T17:56:46.668Z,22.67
2023-02-06T18:00:49.811Z,19.47
2023-02-06T18:04:54.146Z,16.23
2023-02-06T18:08:56.142Z,13.70
2023-02-06T18:12:58.135Z,15.57
2023-02-06T18:17:00.108Z,13.13
2023-02-06T18:21:02.103Z,13.33
2023-02-06T18:25:05.284Z,16.43
2023-02-06T18:29:07.341Z,12.43
2023-02-06T18:33:11.293Z,11.23
2023-02-06T18:37:13.710Z,12.00
2023-02-06T18:41:36.381Z,12.43
2023-02-06T18:45:40.185Z,12.93
2023-02-06T18:49:42.350Z,14.47
2023-02-06T18:53:44.344Z,16.93
2023-02-06T18:57:46.478Z,13.50
2023-02-06T19:01:49.228Z,14.53
2023-02-06T19:05:51.241Z,13.47
2023-02-06T19:10:00.745Z,12.97
2023-02-06T19:14:04.260Z,11.93
2023-02-06T19:18:07.814Z,13.47
2023-02-06T19:22:09.734Z,16.77
2023-02-06T19:26:14.631Z,14.20
2023-02-06T19:30:16.677Z,14.20
2023-02-06T19:34:18.606Z,14.50
2023-02-06T19:38:20.639Z,13.70
2023-02-06T19:42:22.978Z,15.30
2023-02-06T19:46:27.303Z,12.47
2023-02-06T19:50:29.252Z,13.20
2023-02-06T19:54:31.456Z,13.60
2023-02-06T19:58:33.379Z,12.27
2023-02-06T20:02:35.230Z,12.67
2023-02-06T20:06:37.216Z,12.40
2023-02-06T20:10:39.409Z,13.27
2023-02-06T20:14:41.438Z,19.37
2023-02-06T20:18:43.482Z,22.47
2023-02-06T20:22:45.529Z,21.87
2023-02-06T20:26:49.168Z,22.37
2023-02-06T20:30:51.215Z,23.67
2023-02-06T20:34:53.284Z,27.73
2023-02-06T20:38:57.516Z,71.63
2023-02-06T20:42:59.470Z,34.40
2023-02-06T20:47:01.585Z,28.50
2023-02-06T20:51:05.352Z,24.17
2023-02-06T20:55:07.654Z,26.80
2023-02-06T20:59:13.419Z,24.70
2023-02-06T21:03:15.355Z,25.27
2023-02-06T21:07:20.562Z,27.17
2023-02-06T21:11:23.081Z,25.13
2023-02-06T21:15:25.309Z,35.57
2023-02-06T21:19:29.220Z,24.10
2023-02-06T21:23:31.125Z,23.03
2023-02-06T21:27:33.154Z,20.83
2023-02-06T21:31:38.320Z,15.77
2023-02-06T21:35:40.706Z,12.70
2023-02-06T21:39:42.767Z,9.70
2023-02-06T21:43:45.444Z,15.53
2023-02-06T21:47:47.339Z,24.87
2023-02-06T21:51:50.442Z,11.97
2023-02-06T21:55:52.397Z,10.30
2023-02-06T21:59:54.368Z,12.10
2023-02-06T22:03:57.295Z,10.53
2023-02-06T22:07:59.277Z,16.93
2023-02-06T22:12:01.788Z,18.50
2023-02-06T22:16:03.846Z,23.90
2023-02-06T22:20:06.423Z,15.03
2023-02-06T22:24:11.128Z,23.23
2023-02-06T22:28:13.134Z,11.80
2023-02-06T22:32:15.097Z,16.33
2023-02-06T22:36:20.295Z,16.30
2023-02-06T22:40:22.190Z,13.23
2023-02-06T22:44:24.162Z,12.83
2023-02-06T22:48:26.261Z,12.47
2023-02-06T22:52:46.812Z,14.30
2023-02-06T22:56:49.119Z,14.93
2023-02-06T23:00:51.094Z,16.10
2023-02-06T23:04:53.081Z,21.27
2023-02-06T23:08:56.461Z,17.37
2023-02-06T23:12:58.463Z,21.00
2023-02-06T23:17:01.366Z,21.63
2023-02-06T23:21:07.524Z,21.53
2023-02-06T23:25:10.230Z,20.97
2023-02-06T23:29:15.868Z,20.93
2023-02-06T23:33:18.515Z,22.63
2023-02-06T23:37:20.420Z,19.33
2023-02-06T23:41:25.003Z,19.07
2023-02-06T23:45:27.070Z,20.33
2023-02-06T23:49:30.177Z,21.20
2023-02-06T23:53:32.180Z,23.07
2023-02-06T23:57:39.005Z,23.57
